sensor_id;sensor_type;location;lat;lon;timestamp;P1;durP1;ratioP1;P2;durP2;ratioP2
70733;SDS011;58320;48.804;9.252;2024-02-21T00:02:11;10.05;;;4.47;;
70733;SDS011;58320;48.804;9.252;2024-02-21T00:04:37;14.83;;;4.07;;
70733;SDS011;58320;48.804;9.252;2024-02-21T00:07:03;11.60;;;4.35;;
70733;SDS011;58320;48.804;9.252;2024-02-21T00:09:30;8.90;;;3.70;;
70733;SDS011;58320;48.804;9.252;2024-02-21T00:11:55;10.60;;;4.43;;
70733;SDS011;58320;48.804;9.252;2024-02-21T00:14:21;11.45;;;4.40;;
70733;SDS011;58320;48.804;9.252;2024-02-21T00:16:47;11.17;;;4.60;;
70733;SDS011;58320;48.804;9.252;2024-02-21T00:19:12;9.38;;;4.30;;
70733;SDS011;58320;48.804;9.252;2024-02-21T00:21:39;9.73;;;4.10;;
70733;SDS011;58320;48.804;9.252;2024-02-21T00:24:05;9.07;;;4.00;;
70733;SDS011;58320;48.804;9.252;2024-02-21T00:26:31;11.40;;;4.38;;
70733;SDS011;58320;48.804;9.252;2024-02-21T00:28:57;7.37;;;3.80;;
70733;SDS011;58320;48.804;9.252;2024-02-21T00:31:23;10.13;;;4.60;;
70733;SDS011;58320;48.804;9.252;2024-02-21T00:33:48;13.50;;;4.13;;
70733;SDS011;58320;48.804;9.252;2024-02-21T00:36:15;10.65;;;3.90;;
70733;SDS011;58320;48.804;9.252;2024-02-21T00:38:41;16.47;;;5.00;;
70733;SDS011;58320;48.804;9.252;2024-02-21T00:41:07;9.63;;;4.30;;
70733;SDS011;58320;48.804;9.252;2024-02-21T00:43:32;11.50;;;4.33;;
70733;SDS011;58320;48.804;9.252;2024-02-21T00:45:58;11.15;;;4.40;;
70733;SDS011;58320;48.804;9.252;2024-02-21T00:48:24;9.53;;;4.00;;
70733;SDS011;58320;48.804;9.252;2024-02-21T00:50:49;11.48;;;4.07;;
70733;SDS011;58320;48.804;9.252;2024-02-21T00:53:15;10.30;;;4.43;;
70733;SDS011;58320;48.804;9.252;2024-02-21T00:55:41;12.55;;;5.22;;
70733;SDS011;58320;48.804;9.252;2024-02-21T00:58:08;10.05;;;4.20;;
70733;SDS011;58320;48.804;9.252;2024-02-21T01:00:34;11.17;;;4.43;;
70733;SDS011;58320;48.804;9.252;2024-02-21T01:02:59;16.47;;;4.97;;
70733;SDS011;58320;48.804;9.252;2024-02-21T01:05:25;9.52;;;4.10;;
70733;SDS011;58320;48.804;9.252;2024-02-21T01:07:53;12.47;;;3.93;;
70733;SDS011;58320;48.804;9.252;2024-02-21T01:10:18;10.27;;;4.13;;
70733;SDS011;58320;48.804;9.252;2024-02-21T01:12:44;10.67;;;4.63;;
70733;SDS011;58320;48.804;9.252;2024-02-21T01:15:10;12.10;;;4.38;;
70733;SDS011;58320;48.804;9.252;2024-02-21T01:17:36;12.70;;;4.50;;
70733;SDS011;58320;48.804;9.252;2024-02-21T01:20:03;11.32;;;4.80;;
70733;SDS011;58320;48.804;9.252;2024-02-21T01:22:30;9.90;;;4.40;;
70733;SDS011;58320;48.804;9.252;2024-02-21T01:24:56;14.00;;;5.45;;
70733;SDS011;58320;48.804;9.252;2024-02-21T01:27:22;10.48;;;4.50;;
70733;SDS011;58320;48.804;9.252;2024-02-21T01:29:47;15.27;;;4.63;;
70733;SDS011;58320;48.804;9.252;2024-02-21T01:32:14;9.80;;;4.35;;
70733;SDS011;58320;48.804;9.252;2024-02-21T01:34:40;8.43;;;4.07;;
70733;SDS011;58320;48.804;9.252;2024-02-21T01:37:06;13.03;;;4.77;;
70733;SDS011;58320;48.804;9.252;2024-02-21T01:39:32;11.82;;;4.55;;
70733;SDS011;58320;48.804;9.252;2024-02-21T01:41:58;11.90;;;4.60;;
70733;SDS011;58320;48.804;9.252;2024-02-21T01:44:24;10.47;;;4.37;;
70733;SDS011;58320;48.804;9.252;2024-02-21T01:46:50;11.63;;;4.07;;
70733;SDS011;58320;48.804;9.252;2024-02-21T01:49:17;10.30;;;4.43;;
70733;SDS011;58320;48.804;9.252;2024-02-21T01:51:45;13.93;;;4.30;;
70733;SDS011;58320;48.804;9.252;2024-02-21T01:54:12;13.80;;;4.47;;
70733;SDS011;58320;48.804;9.252;2024-02-21T01:56:40;13.07;;;4.13;;
70733;SDS011;58320;48.804;9.252;2024-02-21T01:59:08;9.88;;;3.80;;
70733;SDS011;58320;48.804;9.252;2024-02-21T02:01:34;8.85;;;4.07;;
70733;SDS011;58320;48.804;9.252;2024-02-21T02:04:00;9.65;;;3.97;;
70733;SDS011;58320;48.804;9.252;2024-02-21T02:06:26;14.53;;;4.27;;
70733;SDS011;58320;48.804;9.252;2024-02-21T02:08:52;15.25;;;4.05;;
70733;SDS011;58320;48.804;9.252;2024-02-21T02:11:19;12.70;;;4.22;;
70733;SDS011;58320;48.804;9.252;2024-02-21T02:13:45;14.17;;;4.40;;
70733;SDS011;58320;48.804;9.252;2024-02-21T02:16:10;13.18;;;4.20;;
70733;SDS011;58320;48.804;9.252;2024-02-21T02:18:36;7.23;;;4.10;;
70733;SDS011;58320;48.804;9.252;2024-02-21T02:21:03;9.20;;;3.85;;
70733;SDS011;58320;48.804;9.252;2024-02-21T02:23:36;7.57;;;3.83;;
70733;SDS011;58320;48.804;9.252;2024-02-21T02:26:01;9.23;;;3.50;;
70733;SDS011;58320;48.804;9.252;2024-02-21T02:28:27;11.27;;;3.70;;
70733;SDS011;58320;48.804;9.252;2024-02-21T02:30:53;14.07;;;4.20;;
70733;SDS011;58320;48.804;9.252;2024-02-21T02:33:19;8.90;;;3.58;;
70733;SDS011;58320;48.804;9.252;2024-02-21T02:35:45;12.23;;;4.35;;
70733;SDS011;58320;48.804;9.252;2024-02-21T02:38:11;10.83;;;4.47;;
70733;SDS011;58320;48.804;9.252;2024-02-21T02:40:38;10.70;;;4.10;;
70733;SDS011;58320;48.804;9.252;2024-02-21T02:43:05;11.48;;;4.38;;
70733;SDS011;58320;48.804;9.252;2024-02-21T02:45:31;10.03;;;3.73;;
70733;SDS011;58320;48.804;9.252;2024-02-21T02:47:57;11.18;;;4.03;;
70733;SDS011;58320;48.804;9.252;2024-02-21T02:50:23;9.63;;;4.20;;
70733;SDS011;58320;48.804;9.252;2024-02-21T02:52:49;9.05;;;3.88;;
70733;SDS011;58320;48.804;9.252;2024-02-21T02:55:15;8.23;;;3.50;;
70733;SDS011;58320;48.804;9.252;2024-02-21T02:57:41;10.55;;;4.10;;
70733;SDS011;58320;48.804;9.252;2024-02-21T03:00:08;13.48;;;4.68;;
70733;SDS011;58320;48.804;9.252;2024-02-21T03:02:36;11.52;;;4.47;;
70733;SDS011;58320;48.804;9.252;2024-02-21T03:05:13;9.07;;;4.33;;
70733;SDS011;58320;48.804;9.252;2024-02-21T03:07:44;10.88;;;4.10;;
70733;SDS011;58320;48.804;9.252;2024-02-21T03:10:10;11.77;;;4.70;;
70733;SDS011;58320;48.804;9.252;2024-02-21T03:12:36;9.52;;;3.90;;
70733;SDS011;58320;48.804;9.252;2024-02-21T03:15:03;8.35;;;3.70;;
70733;SDS011;58320;48.804;9.252;2024-02-21T03:17:29;7.47;;;3.27;;
70733;SDS011;58320;48.804;9.252;2024-02-21T03:19:56;10.18;;;4.35;;
70733;SDS011;58320;48.804;9.252;2024-02-21T03:22:22;9.07;;;3.92;;
70733;SDS011;58320;48.804;9.252;2024-02-21T03:24:48;7.60;;;3.30;;
70733;SDS011;58320;48.804;9.252;2024-02-21T03:27:14;9.88;;;3.80;;
70733;SDS011;58320;48.804;9.252;2024-02-21T03:29:39;12.55;;;4.07;;
70733;SDS011;58320;48.804;9.252;2024-02-21T03:32:05;10.00;;;4.03;;
70733;SDS011;58320;48.804;9.252;2024-02-21T03:34:31;9.65;;;4.28;;
70733;SDS011;58320;48.804;9.252;2024-02-21T03:36:57;12.27;;;5.07;;
70733;SDS011;58320;48.804;9.252;2024-02-21T03:39:22;10.35;;;4.75;;
70733;SDS011;58320;48.804;9.252;2024-02-21T03:41:48;10.10;;;4.97;;
70733;SDS011;58320;48.804;9.252;2024-02-21T03:44:14;12.77;;;5.40;;
70733;SDS011;58320;48.804;9.252;2024-02-21T03:46:39;10.97;;;4.63;;
70733;SDS011;58320;48.804;9.252;2024-02-21T03:49:06;11.27;;;4.00;;
70733;SDS011;58320;48.804;9.252;2024-02-21T03:51:32;10.07;;;4.03;;
70733;SDS011;58320;48.804;9.252;2024-02-21T03:53:57;8.87;;;4.40;;
70733;SDS011;58320;48.804;9.252;2024-02-21T03:56:23;12.40;;;4.68;;
70733;SDS011;58320;48.804;9.252;2024-02-21T03:58:49;7.30;;;3.97;;
70733;SDS011;58320;48.804;9.252;2024-02-21T04:03:24;8.40;;;3.90;;
70733;SDS011;58320;48.804;9.252;2024-02-21T04:05:50;8.70;;;3.73;;
70733;SDS011;58320;48.804;9.252;2024-02-21T04:08:16;7.57;;;3.72;;
70733;SDS011;58320;48.804;9.252;2024-02-21T04:10:41;7.93;;;3.53;;
70733;SDS011;58320;48.804;9.252;2024-02-21T04:13:07;8.63;;;3.45;;
70733;SDS011;58320;48.804;9.252;2024-02-21T04:15:33;8.57;;;3.63;;
70733;SDS011;58320;48.804;9.252;2024-02-21T04:17:58;12.38;;;3.88;;
70733;SDS011;58320;48.804;9.252;2024-02-21T04:20:24;9.97;;;4.17;;
70733;SDS011;58320;48.804;9.252;2024-02-21T04:22:50;8.85;;;3.90;;
70733;SDS011;58320;48.804;9.252;2024-02-21T04:25:16;8.23;;;3.75;;
70733;SDS011;58320;48.804;9.252;2024-02-21T04:27:41;11.67;;;4.90;;
70733;SDS011;58320;48.804;9.252;2024-02-21T04:30:07;10.80;;;3.30;;
70733;SDS011;58320;48.804;9.252;2024-02-21T04:32:34;8.40;;;3.55;;
70733;SDS011;58320;48.804;9.252;2024-02-21T04:35:00;7.50;;;3.03;;
70733;SDS011;58320;48.804;9.252;2024-02-21T04:37:26;9.25;;;3.47;;
70733;SDS011;58320;48.804;9.252;2024-02-21T04:39:52;8.10;;;3.13;;
70733;SDS011;58320;48.804;9.252;2024-02-21T04:42:17;8.43;;;3.65;;
70733;SDS011;58320;48.804;9.252;2024-02-21T04:44:43;9.15;;;3.03;;
70733;SDS011;58320;48.804;9.252;2024-02-21T04:47:09;6.80;;;2.80;;
70733;SDS011;58320;48.804;9.252;2024-02-21T04:49:35;8.70;;;3.60;;
70733;SDS011;58320;48.804;9.252;2024-02-21T04:52:01;10.32;;;3.83;;
70733;SDS011;58320;48.804;9.252;2024-02-21T04:54:27;8.90;;;3.07;;
70733;SDS011;58320;48.804;9.252;2024-02-21T04:56:52;7.85;;;4.00;;
70733;SDS011;58320;48.804;9.252;2024-02-21T04:59:18;8.00;;;3.50;;
70733;SDS011;58320;48.804;9.252;2024-02-21T05:01:44;7.82;;;3.53;;
70733;SDS011;58320;48.804;9.252;2024-02-21T05:04:09;10.37;;;3.40;;
70733;SDS011;58320;48.804;9.252;2024-02-21T05:06:38;7.70;;;2.97;;
70733;SDS011;58320;48.804;9.252;2024-02-21T05:09:05;11.57;;;3.70;;
70733;SDS011;58320;48.804;9.252;2024-02-21T05:11:31;8.65;;;3.20;;
70733;SDS011;58320;48.804;9.252;2024-02-21T05:13:57;9.45;;;3.38;;
70733;SDS011;58320;48.804;9.252;2024-02-21T05:16:23;9.03;;;3.70;;
70733;SDS011;58320;48.804;9.252;2024-02-21T05:18:48;7.22;;;3.47;;
70733;SDS011;58320;48.804;9.252;2024-02-21T05:21:14;10.93;;;3.30;;
70733;SDS011;58320;48.804;9.252;2024-02-21T05:23:40;11.07;;;3.45;;
70733;SDS011;58320;48.804;9.252;2024-02-21T05:26:06;10.90;;;3.40;;
70733;SDS011;58320;48.804;9.252;2024-02-21T05:28:32;7.97;;;3.28;;
70733;SDS011;58320;48.804;9.252;2024-02-21T05:30:57;7.80;;;3.50;;
70733;SDS011;58320;48.804;9.252;2024-02-21T05:33:23;9.40;;;3.57;;
70733;SDS011;58320;48.804;9.252;2024-02-21T05:35:49;9.75;;;3.70;;
70733;SDS011;58320;48.804;9.252;2024-02-21T05:38:16;11.93;;;3.55;;
70733;SDS011;58320;48.804;9.252;2024-02-21T05:40:42;9.27;;;3.30;;
70733;SDS011;58320;48.804;9.252;2024-02-21T05:43:09;10.35;;;3.92;;
70733;SDS011;58320;48.804;9.252;2024-02-21T05:45:35;10.37;;;3.77;;
70733;SDS011;58320;48.804;9.252;2024-02-21T05:48:02;10.00;;;3.03;;
70733;SDS011;58320;48.804;9.252;2024-02-21T05:50:29;9.07;;;3.50;;
70733;SDS011;58320;48.804;9.252;2024-02-21T05:52:55;8.73;;;3.13;;
70733;SDS011;58320;48.804;9.252;2024-02-21T05:55:21;5.90;;;2.75;;
70733;SDS011;58320;48.804;9.252;2024-02-21T05:57:47;9.50;;;3.43;;
70733;SDS011;58320;48.804;9.252;2024-02-21T06:00:13;9.73;;;3.63;;
70733;SDS011;58320;48.804;9.252;2024-02-21T06:02:40;11.60;;;3.80;;
70733;SDS011;58320;48.804;9.252;2024-02-21T06:05:07;8.60;;;3.47;;
70733;SDS011;58320;48.804;9.252;2024-02-21T06:07:33;10.25;;;3.38;;
70733;SDS011;58320;48.804;9.252;2024-02-21T06:10:00;10.40;;;2.67;;
70733;SDS011;58320;48.804;9.252;2024-02-21T06:12:30;7.43;;;3.30;;
70733;SDS011;58320;48.804;9.252;2024-02-21T06:14:55;6.57;;;3.00;;
70733;SDS011;58320;48.804;9.252;2024-02-21T06:17:21;9.57;;;2.87;;
70733;SDS011;58320;48.804;9.252;2024-02-21T06:19:47;6.57;;;3.20;;
70733;SDS011;58320;48.804;9.252;2024-02-21T06:22:12;8.43;;;3.33;;
70733;SDS011;58320;48.804;9.252;2024-02-21T06:24:38;11.95;;;3.47;;
70733;SDS011;58320;48.804;9.252;2024-02-21T06:27:04;8.17;;;3.10;;
70733;SDS011;58320;48.804;9.252;2024-02-21T06:29:33;7.53;;;2.97;;
70733;SDS011;58320;48.804;9.252;2024-02-21T06:32:00;9.35;;;3.13;;
70733;SDS011;58320;48.804;9.252;2024-02-21T06:34:26;7.30;;;3.40;;
70733;SDS011;58320;48.804;9.252;2024-02-21T06:36:53;11.10;;;3.10;;
70733;SDS011;58320;48.804;9.252;2024-02-21T06:39:19;7.50;;;3.05;;
70733;SDS011;58320;48.804;9.252;2024-02-21T06:41:45;6.13;;;3.20;;
70733;SDS011;58320;48.804;9.252;2024-02-21T06:44:10;9.57;;;3.13;;
70733;SDS011;58320;48.804;9.252;2024-02-21T06:46:36;10.38;;;3.85;;
70733;SDS011;58320;48.804;9.252;2024-02-21T06:49:02;8.63;;;3.50;;
70733;SDS011;58320;48.804;9.252;2024-02-21T06:51:31;11.02;;;3.10;;
70733;SDS011;58320;48.804;9.252;2024-02-21T06:53:57;10.90;;;3.67;;
70733;SDS011;58320;48.804;9.252;2024-02-21T06:56:23;10.63;;;3.22;;
70733;SDS011;58320;48.804;9.252;2024-02-21T06:58:54;8.70;;;3.27;;
70733;SDS011;58320;48.804;9.252;2024-02-21T07:01:20;10.48;;;3.42;;
70733;SDS011;58320;48.804;9.252;2024-02-21T07:03:46;8.00;;;3.15;;
70733;SDS011;58320;48.804;9.252;2024-02-21T07:06:11;9.07;;;3.00;;
70733;SDS011;58320;48.804;9.252;2024-02-21T07:08:37;10.85;;;3.50;;
70733;SDS011;58320;48.804;9.252;2024-02-21T07:11:04;8.68;;;3.20;;
70733;SDS011;58320;48.804;9.252;2024-02-21T07:13:30;8.23;;;3.10;;
70733;SDS011;58320;48.804;9.252;2024-02-21T07:15:55;8.23;;;3.40;;
70733;SDS011;58320;48.804;9.252;2024-02-21T07:18:21;7.68;;;3.42;;
70733;SDS011;58320;48.804;9.252;2024-02-21T07:20:47;10.60;;;3.37;;
70733;SDS011;58320;48.804;9.252;2024-02-21T07:23:12;6.57;;;3.45;;
70733;SDS011;58320;48.804;9.252;2024-02-21T07:25:38;7.93;;;3.57;;
70733;SDS011;58320;48.804;9.252;2024-02-21T07:28:04;10.32;;;3.92;;
70733;SDS011;58320;48.804;9.252;2024-02-21T07:30:31;5.75;;;3.17;;
70733;SDS011;58320;48.804;9.252;2024-02-21T07:32:57;7.50;;;3.20;;
70733;SDS011;58320;48.804;9.252;2024-02-21T07:35:23;8.27;;;3.40;;
70733;SDS011;58320;48.804;9.252;2024-02-21T07:37:48;8.13;;;3.15;;
70733;SDS011;58320;48.804;9.252;2024-02-21T07:40:15;9.47;;;3.00;;
70733;SDS011;58320;48.804;9.252;2024-02-21T07:42:42;10.90;;;3.00;;
70733;SDS011;58320;48.804;9.252;2024-02-21T07:45:08;7.03;;;2.80;;
70733;SDS011;58320;48.804;9.252;2024-02-21T07:47:35;8.57;;;3.13;;
70733;SDS011;58320;48.804;9.252;2024-02-21T07:50:02;8.60;;;3.43;;
70733;SDS011;58320;48.804;9.252;2024-02-21T07:52:29;7.13;;;2.90;;
70733;SDS011;58320;48.804;9.252;2024-02-21T07:54:54;8.27;;;3.13;;
70733;SDS011;58320;48.804;9.252;2024-02-21T07:57:20;9.23;;;3.30;;
70733;SDS011;58320;48.804;9.252;2024-02-21T07:59:47;7.05;;;3.00;;
70733;SDS011;58320;48.804;9.252;2024-02-21T08:02:13;8.10;;;3.42;;
70733;SDS011;58320;48.804;9.252;2024-02-21T08:04:39;7.72;;;3.35;;
70733;SDS011;58320;48.804;9.252;2024-02-21T08:07:05;9.53;;;3.00;;
70733;SDS011;58320;48.804;9.252;2024-02-21T08:09:31;5.90;;;2.80;;
70733;SDS011;58320;48.804;9.252;2024-02-21T08:11:57;7.83;;;3.57;;
70733;SDS011;58320;48.804;9.252;2024-02-21T08:14:22;7.88;;;3.00;;
70733;SDS011;58320;48.804;9.252;2024-02-21T08:16:50;10.32;;;3.15;;
70733;SDS011;58320;48.804;9.252;2024-02-21T08:19:18;6.03;;;3.00;;
70733;SDS011;58320;48.804;9.252;2024-02-21T08:21:44;11.50;;;3.70;;
70733;SDS011;58320;48.804;9.252;2024-02-21T08:24:12;10.55;;;3.30;;
70733;SDS011;58320;48.804;9.252;2024-02-21T08:26:44;8.18;;;3.30;;
70733;SDS011;58320;48.804;9.252;2024-02-21T08:29:10;10.48;;;3.47;;
70733;SDS011;58320;48.804;9.252;2024-02-21T08:31:37;11.77;;;4.15;;
70733;SDS011;58320;48.804;9.252;2024-02-21T08:34:02;10.40;;;3.70;;
70733;SDS011;58320;48.804;9.252;2024-02-21T08:36:32;10.55;;;3.08;;
70733;SDS011;58320;48.804;9.252;2024-02-21T08:38:59;16.33;;;3.92;;
70733;SDS011;58320;48.804;9.252;2024-02-21T08:41:27;9.10;;;3.17;;
70733;SDS011;58320;48.804;9.252;2024-02-21T08:43:55;9.05;;;3.13;;
70733;SDS011;58320;48.804;9.252;2024-02-21T08:46:21;10.55;;;3.42;;
70733;SDS011;58320;48.804;9.252;2024-02-21T08:48:49;9.18;;;3.50;;
70733;SDS011;58320;48.804;9.252;2024-02-21T08:51:16;6.83;;;3.10;;
70733;SDS011;58320;48.804;9.252;2024-02-21T08:53:46;9.90;;;3.20;;
70733;SDS011;58320;48.804;9.252;2024-02-21T08:56:12;7.43;;;3.33;;
70733;SDS011;58320;48.804;9.252;2024-02-21T08:58:41;7.13;;;3.22;;
70733;SDS011;58320;48.804;9.252;2024-02-21T09:01:07;9.93;;;3.20;;
70733;SDS011;58320;48.804;9.252;2024-02-21T09:03:35;6.30;;;3.63;;
70733;SDS011;58320;48.804;9.252;2024-02-21T09:06:02;8.43;;;3.35;;
70733;SDS011;58320;48.804;9.252;2024-02-21T09:08:32;9.10;;;3.00;;
70733;SDS011;58320;48.804;9.252;2024-02-21T09:10:59;11.27;;;3.53;;
70733;SDS011;58320;48.804;9.252;2024-02-21T09:13:28;8.68;;;2.85;;
70733;SDS011;58320;48.804;9.252;2024-02-21T09:15:55;8.60;;;3.83;;
70733;SDS011;58320;48.804;9.252;2024-02-21T09:18:21;9.02;;;3.28;;
70733;SDS011;58320;48.804;9.252;2024-02-21T09:20:46;8.15;;;3.15;;
70733;SDS011;58320;48.804;9.252;2024-02-21T09:23:12;7.23;;;3.00;;
70733;SDS011;58320;48.804;9.252;2024-02-21T09:25:38;8.30;;;3.15;;
70733;SDS011;58320;48.804;9.252;2024-02-21T09:28:05;7.25;;;3.40;;
70733;SDS011;58320;48.804;9.252;2024-02-21T09:30:33;10.27;;;3.30;;
70733;SDS011;58320;48.804;9.252;2024-02-21T09:32:59;7.97;;;3.43;;
70733;SDS011;58320;48.804;9.252;2024-02-21T09:35:26;7.07;;;3.20;;
70733;SDS011;58320;48.804;9.252;2024-02-21T09:37:52;5.60;;;2.65;;
70733;SDS011;58320;48.804;9.252;2024-02-21T09:40:18;9.15;;;2.97;;
70733;SDS011;58320;48.804;9.252;2024-02-21T09:42:46;8.20;;;3.20;;
70733;SDS011;58320;48.804;9.252;2024-02-21T09:50:51;6.30;;;2.53;;
70733;SDS011;58320;48.804;9.252;2024-02-21T09:53:20;8.30;;;3.63;;
70733;SDS011;58320;48.804;9.252;2024-02-21T09:55:46;9.90;;;3.10;;
70733;SDS011;58320;48.804;9.252;2024-02-21T09:58:13;10.48;;;2.90;;
70733;SDS011;58320;48.804;9.252;2024-02-21T10:00:39;7.95;;;3.50;;
70733;SDS011;58320;48.804;9.252;2024-02-21T10:03:05;8.02;;;3.20;;
70733;SDS011;58320;48.804;9.252;2024-02-21T10:05:33;7.50;;;2.53;;
70733;SDS011;58320;48.804;9.252;2024-02-21T10:08:00;6.05;;;2.92;;
70733;SDS011;58320;48.804;9.252;2024-02-21T10:10:27;6.57;;;2.92;;
70733;SDS011;58320;48.804;9.252;2024-02-21T10:12:54;8.57;;;3.38;;
70733;SDS011;58320;48.804;9.252;2024-02-21T10:15:21;8.00;;;2.70;;
70733;SDS011;58320;48.804;9.252;2024-02-21T10:17:48;7.63;;;2.83;;
70733;SDS011;58320;48.804;9.252;2024-02-21T10:20:22;9.07;;;2.80;;
70733;SDS011;58320;48.804;9.252;2024-02-21T10:22:48;12.85;;;3.15;;
70733;SDS011;58320;48.804;9.252;2024-02-21T10:25:14;6.07;;;2.33;;
70733;SDS011;58320;48.804;9.252;2024-02-21T10:27:40;7.32;;;2.40;;
70733;SDS011;58320;48.804;9.252;2024-02-21T10:30:15;6.68;;;2.17;;
70733;SDS011;58320;48.804;9.252;2024-02-21T10:32:51;7.18;;;2.13;;
70733;SDS011;58320;48.804;9.252;2024-02-21T10:35:27;6.18;;;1.88;;
70733;SDS011;58320;48.804;9.252;2024-02-21T10:37:57;8.73;;;2.30;;
70733;SDS011;58320;48.804;9.252;2024-02-21T10:40:28;7.95;;;2.50;;
70733;SDS011;58320;48.804;9.252;2024-02-21T10:42:59;8.70;;;2.28;;
70733;SDS011;58320;48.804;9.252;2024-02-21T10:45:30;8.35;;;1.95;;
70733;SDS011;58320;48.804;9.252;2024-02-21T10:48:16;5.47;;;2.10;;
70733;SDS011;58320;48.804;9.252;2024-02-21T10:51:14;6.57;;;2.03;;
70733;SDS011;58320;48.804;9.252;2024-02-21T10:57:02;5.80;;;2.10;;
70733;SDS011;58320;48.804;9.252;2024-02-21T10:59:29;6.90;;;2.10;;
70733;SDS011;58320;48.804;9.252;2024-02-21T11:01:57;7.30;;;1.83;;
70733;SDS011;58320;48.804;9.252;2024-02-21T11:04:23;6.73;;;1.90;;
70733;SDS011;58320;48.804;9.252;2024-02-21T11:06:50;7.35;;;2.05;;
70733;SDS011;58320;48.804;9.252;2024-02-21T11:09:16;7.25;;;2.00;;
70733;SDS011;58320;48.804;9.252;2024-02-21T11:11:43;6.13;;;2.00;;
70733;SDS011;58320;48.804;9.252;2024-02-21T11:14:19;4.75;;;1.90;;
70733;SDS011;58320;48.804;9.252;2024-02-21T11:16:46;6.22;;;2.20;;
70733;SDS011;58320;48.804;9.252;2024-02-21T11:19:20;5.13;;;1.80;;
70733;SDS011;58320;48.804;9.252;2024-02-21T11:21:53;6.80;;;1.80;;
70733;SDS011;58320;48.804;9.252;2024-02-21T11:24:30;7.03;;;1.57;;
70733;SDS011;58320;48.804;9.252;2024-02-21T11:29:47;6.95;;;1.67;;
70733;SDS011;58320;48.804;9.252;2024-02-21T11:32:18;4.25;;;1.80;;
70733;SDS011;58320;48.804;9.252;2024-02-21T11:37:46;7.50;;;1.97;;
70733;SDS011;58320;48.804;9.252;2024-02-21T11:40:12;3.92;;;1.50;;
70733;SDS011;58320;48.804;9.252;2024-02-21T11:42:37;4.85;;;1.70;;
70733;SDS011;58320;48.804;9.252;2024-02-21T11:45:03;4.07;;;1.30;;
70733;SDS011;58320;48.804;9.252;2024-02-21T11:47:31;4.80;;;1.92;;
70733;SDS011;58320;48.804;9.252;2024-02-21T11:49:57;4.55;;;1.40;;
70733;SDS011;58320;48.804;9.252;2024-02-21T11:52:23;7.07;;;1.93;;
70733;SDS011;58320;48.804;9.252;2024-02-21T11:54:50;5.18;;;1.75;;
70733;SDS011;58320;48.804;9.252;2024-02-21T11:57:21;4.38;;;1.38;;
70733;SDS011;58320;48.804;9.252;2024-02-21T11:59:47;4.00;;;1.63;;
70733;SDS011;58320;48.804;9.252;2024-02-21T12:02:14;6.28;;;1.83;;
70733;SDS011;58320;48.804;9.252;2024-02-21T12:04:40;4.82;;;1.48;;
70733;SDS011;58320;48.804;9.252;2024-02-21T12:07:07;4.05;;;1.27;;
70733;SDS011;58320;48.804;9.252;2024-02-21T12:09:33;5.47;;;1.30;;
70733;SDS011;58320;48.804;9.252;2024-02-21T12:14:30;3.53;;;1.23;;
70733;SDS011;58320;48.804;9.252;2024-02-21T12:17:01;6.57;;;1.70;;
70733;SDS011;58320;48.804;9.252;2024-02-21T12:19:30;3.80;;;1.37;;
70733;SDS011;58320;48.804;9.252;2024-02-21T12:21:56;3.80;;;1.10;;
70733;SDS011;58320;48.804;9.252;2024-02-21T12:24:24;3.90;;;1.50;;
70733;SDS011;58320;48.804;9.252;2024-02-21T12:26:52;4.80;;;1.33;;
70733;SDS011;58320;48.804;9.252;2024-02-21T12:29:19;5.97;;;1.50;;
70733;SDS011;58320;48.804;9.252;2024-02-21T12:31:45;4.80;;;1.17;;
70733;SDS011;58320;48.804;9.252;2024-02-21T12:34:11;7.15;;;1.42;;
70733;SDS011;58320;48.804;9.252;2024-02-21T12:36:43;5.72;;;1.70;;
70733;SDS011;58320;48.804;9.252;2024-02-21T12:39:13;7.47;;;1.53;;
70733;SDS011;58320;48.804;9.252;2024-02-21T12:41:39;3.42;;;1.00;;
70733;SDS011;58320;48.804;9.252;2024-02-21T12:44:07;5.43;;;1.58;;
70733;SDS011;58320;48.804;9.252;2024-02-21T12:46:33;3.42;;;1.23;;
70733;SDS011;58320;48.804;9.252;2024-02-21T12:49:00;4.13;;;1.13;;
70733;SDS011;58320;48.804;9.252;2024-02-21T12:51:27;3.30;;;1.23;;
70733;SDS011;58320;48.804;9.252;2024-02-21T12:53:52;3.38;;;1.20;;
70733;SDS011;58320;48.804;9.252;2024-02-21T12:56:18;4.97;;;1.52;;
70733;SDS011;58320;48.804;9.252;2024-02-21T12:58:44;5.10;;;1.77;;
70733;SDS011;58320;48.804;9.252;2024-02-21T13:01:10;4.53;;;1.40;;
70733;SDS011;58320;48.804;9.252;2024-02-21T13:03:35;5.25;;;1.48;;
70733;SDS011;58320;48.804;9.252;2024-02-21T13:06:01;4.43;;;1.83;;
70733;SDS011;58320;48.804;9.252;2024-02-21T13:08:27;4.60;;;1.90;;
70733;SDS011;58320;48.804;9.252;2024-02-21T13:10:53;6.50;;;1.60;;
70733;SDS011;58320;48.804;9.252;2024-02-21T13:13:18;4.75;;;1.48;;
70733;SDS011;58320;48.804;9.252;2024-02-21T13:15:44;3.47;;;1.20;;
70733;SDS011;58320;48.804;9.252;2024-02-21T13:18:10;7.57;;;1.63;;
70733;SDS011;58320;48.804;9.252;2024-02-21T13:20:36;5.22;;;1.88;;
70733;SDS011;58320;48.804;9.252;2024-02-21T13:23:02;3.60;;;1.10;;
70733;SDS011;58320;48.804;9.252;2024-02-21T13:25:28;4.20;;;1.42;;
70733;SDS011;58320;48.804;9.252;2024-02-21T13:27:54;4.25;;;1.40;;
70733;SDS011;58320;48.804;9.252;2024-02-21T13:30:21;4.33;;;1.20;;
70733;SDS011;58320;48.804;9.252;2024-02-21T13:32:47;3.53;;;1.08;;
70733;SDS011;58320;48.804;9.252;2024-02-21T13:35:13;7.72;;;1.20;;
70733;SDS011;58320;48.804;9.252;2024-02-21T13:37:40;3.85;;;1.20;;
70733;SDS011;58320;48.804;9.252;2024-02-21T13:40:07;6.40;;;1.48;;
70733;SDS011;58320;48.804;9.252;2024-02-21T13:42:39;3.70;;;1.07;;
70733;SDS011;58320;48.804;9.252;2024-02-21T13:45:05;6.80;;;1.40;;
70733;SDS011;58320;48.804;9.252;2024-02-21T13:47:32;5.72;;;1.25;;
70733;SDS011;58320;48.804;9.252;2024-02-21T13:49:58;3.45;;;1.40;;
70733;SDS011;58320;48.804;9.252;2024-02-21T13:52:24;5.83;;;1.13;;
70733;SDS011;58320;48.804;9.252;2024-02-21T13:54:53;2.88;;;0.90;;
70733;SDS011;58320;48.804;9.252;2024-02-21T13:57:19;4.40;;;1.30;;
70733;SDS011;58320;48.804;9.252;2024-02-21T13:59:44;4.03;;;1.40;;
70733;SDS011;58320;48.804;9.252;2024-02-21T14:02:10;3.60;;;1.35;;
70733;SDS011;58320;48.804;9.252;2024-02-21T14:04:37;3.22;;;1.52;;
70733;SDS011;58320;48.804;9.252;2024-02-21T14:07:02;3.83;;;1.27;;
70733;SDS011;58320;48.804;9.252;2024-02-21T14:09:28;4.03;;;1.75;;
70733;SDS011;58320;48.804;9.252;2024-02-21T14:11:58;3.78;;;1.25;;
70733;SDS011;58320;48.804;9.252;2024-02-21T14:14:24;4.37;;;1.20;;
70733;SDS011;58320;48.804;9.252;2024-02-21T14:16:50;7.55;;;1.15;;
70733;SDS011;58320;48.804;9.252;2024-02-21T14:19:16;3.37;;;1.00;;
70733;SDS011;58320;48.804;9.252;2024-02-21T14:21:42;2.75;;;1.20;;
70733;SDS011;58320;48.804;9.252;2024-02-21T14:24:08;3.08;;;1.23;;
70733;SDS011;58320;48.804;9.252;2024-02-21T14:26:34;5.00;;;1.63;;
70733;SDS011;58320;48.804;9.252;2024-02-21T14:29:00;3.40;;;1.50;;
70733;SDS011;58320;48.804;9.252;2024-02-21T14:31:27;4.32;;;1.00;;
70733;SDS011;58320;48.804;9.252;2024-02-21T14:33:56;3.70;;;1.33;;
70733;SDS011;58320;48.804;9.252;2024-02-21T14:36:22;5.97;;;1.90;;
70733;SDS011;58320;48.804;9.252;2024-02-21T14:38:49;3.33;;;1.43;;
70733;SDS011;58320;48.804;9.252;2024-02-21T14:41:16;3.00;;;1.10;;
70733;SDS011;58320;48.804;9.252;2024-02-21T14:43:43;3.53;;;1.15;;
70733;SDS011;58320;48.804;9.252;2024-02-21T14:46:08;7.07;;;1.73;;
70733;SDS011;58320;48.804;9.252;2024-02-21T14:48:37;7.63;;;1.45;;
70733;SDS011;58320;48.804;9.252;2024-02-21T14:51:03;4.80;;;1.75;;
70733;SDS011;58320;48.804;9.252;2024-02-21T14:53:29;4.35;;;1.50;;
70733;SDS011;58320;48.804;9.252;2024-02-21T14:55:58;5.75;;;1.48;;
70733;SDS011;58320;48.804;9.252;2024-02-21T14:58:23;8.73;;;1.50;;
70733;SDS011;58320;48.804;9.252;2024-02-21T15:00:49;5.15;;;1.40;;